createdAt,value
2022-09-27T00:00:28.134Z,33.67
2022-09-27T00:05:30.943Z,37.25
2022-09-27T00:10:33.385Z,34.20
2022-09-27T00:15:35.739Z,34.25
2022-09-27T00:20:38.309Z,37.25
2022-09-27T00:25:40.763Z,34.85
2022-09-27T00:30:43.391Z,36.78
2022-09-27T00:35:45.910Z,33.50
2022-09-27T00:40:48.641Z,35.45
2022-09-27T00:45:54.011Z,37.10
2022-09-27T00:50:59.753Z,36.33
2022-09-27T00:56:05.470Z,36.63
2022-09-27T01:01:13.872Z,37.25
2022-09-27T01:06:17.998Z,43.95
2022-09-27T01:11:29.055Z,42.60
2022-09-27T01:17:16.985Z,42.92
2022-09-27T01:22:29.719Z,43.03
2022-09-27T01:27:58.701Z,42.28
2022-09-27T01:33:07.057Z,40.20
2022-09-27T01:38:23.747Z,38.78
2022-09-27T01:44:01.619Z,34.95
2022-09-27T01:49:18.429Z,47.63
2022-09-27T01:54:26.218Z,48.97
2022-09-27T02:00:05.309Z,48.40
2022-09-27T02:05:18.139Z,47.22
2022-09-27T02:10:27.947Z,42.88
2022-09-27T02:15:38.127Z,56.08
2022-09-27T02:21:02.008Z,49.13
2022-09-27T02:26:19.613Z,72.00
2022-09-27T02:31:23.900Z,49.60
2022-09-27T02:36:26.817Z,52.53
2022-09-27T02:41:29.275Z,51.05
2022-09-27T02:46:53.248Z,51.30
2022-09-27T02:52:01.857Z,52.88
2022-09-27T02:57:10.009Z,55.05
2022-09-27T03:02:57.126Z,42.28
2022-09-27T03:08:29.396Z,44.17
2022-09-27T03:13:32.562Z,51.35
2022-09-27T03:18:35.753Z,54.13
2022-09-27T03:24:02.060Z,54.97
2022-09-27T03:29:05.506Z,122.75
2022-09-27T03:34:08.190Z,73.25
2022-09-27T03:39:10.742Z,63.22
2022-09-27T03:44:13.182Z,51.35
2022-09-27T03:49:15.662Z,73.93
2022-09-27T03:54:18.111Z,55.17
2022-09-27T03:59:20.481Z,178.20
2022-09-27T04:04:41.260Z,78.72
2022-09-27T04:09:44.953Z,52.00
2022-09-27T04:14:47.696Z,39.72
2022-09-27T04:20:09.273Z,54.92
2022-09-27T04:25:13.886Z,52.42
2022-09-27T04:30:16.923Z,52.53
2022-09-27T04:36:02.448Z,45.72
2022-09-27T04:41:05.469Z,45.55
2022-09-27T04:46:09.940Z,52.35
2022-09-27T04:51:12.371Z,42.95
2022-09-27T04:56:16.223Z,48.83
2022-09-27T05:01:19.507Z,48.55
2022-09-27T05:06:40.493Z,54.47
2022-09-27T05:11:53.256Z,45.72
2022-09-27T05:17:15.265Z,42.33
2022-09-27T05:22:36.311Z,43.15
2022-09-27T05:27:39.096Z,40.70
2022-09-27T05:32:44.227Z,39.83
2022-09-27T05:38:01.790Z,35.10
2022-09-27T05:43:07.251Z,37.60
2022-09-27T05:48:09.999Z,42.35
2022-09-27T05:53:19.452Z,37.80
2022-09-27T05:58:22.958Z,34.70
2022-09-27T06:03:34.203Z,43.70
2022-09-27T06:08:52.090Z,35.72
2022-09-27T06:13:55.554Z,36.03
2022-09-27T06:18:59.935Z,40.60
2022-09-27T06:24:02.771Z,42.60
2022-09-27T06:29:09.396Z,33.65
2022-09-27T06:34:14.618Z,82.95
2022-09-27T06:39:17.511Z,39.90
2022-09-27T06:44:40.127Z,54.13
2022-09-27T06:50:03.808Z,41.20
2022-09-27T06:55:07.144Z,56.50
2022-09-27T07:00:24.170Z,46.55
2022-09-27T07:05:56.097Z,38.75
2022-09-27T07:11:22.116Z,35.72
2022-09-27T07:16:24.800Z,32.65
2022-09-27T07:21:27.652Z,36.55
2022-09-27T07:26:30.424Z,33.20
2022-09-27T07:31:34.016Z,34.55
2022-09-27T07:36:36.634Z,35.88
2022-09-27T07:41:40.513Z,33.05
2022-09-27T07:46:42.981Z,26.83
2022-09-27T07:51:54.552Z,27.58
2022-09-27T07:57:23.850Z,26.60
2022-09-27T08:02:28.779Z,27.02
2022-09-27T08:07:33.042Z,30.67
2022-09-27T08:12:36.974Z,27.42
2022-09-27T08:17:39.637Z,23.80
2022-09-27T08:23:11.737Z,24.88
2022-09-27T08:28:18.147Z,22.20
2022-09-27T08:33:32.921Z,21.55
2022-09-27T08:38:37.103Z,26.63
2022-09-27T08:43:50.777Z,24.60
2022-09-27T08:49:07.169Z,19.38
2022-09-27T08:54:19.141Z,28.55
2022-09-27T08:59:26.594Z,31.02
2022-09-27T09:04:35.319Z,32.00
2022-09-27T09:10:02.689Z,29.02
2022-09-27T09:16:10.384Z,27.25
2022-09-27T09:21:41.493Z,19.75
2022-09-27T09:27:09.306Z,25.45
2022-09-27T09:32:26.984Z,24.00
2022-09-27T09:38:12.972Z,24.20
2022-09-27T09:43:29.168Z,23.08
2022-09-27T09:48:39.704Z,25.10
2022-09-27T09:53:50.972Z,28.08
2022-09-27T09:59:03.923Z,21.88
2022-09-27T10:04:20.604Z,28.30
2022-09-27T10:09:25.787Z,31.70
2022-09-27T10:15:01.947Z,28.20
2022-09-27T10:20:07.182Z,27.80
2022-09-27T10:25:10.937Z,27.42
2022-09-27T10:30:24.293Z,25.85
2022-09-27T10:35:29.572Z,26.23
2022-09-27T10:40:35.441Z,20.15
2022-09-27T10:45:42.556Z,26.13
2022-09-27T10:50:59.608Z,25.60
2022-09-27T10:56:30.068Z,25.00
2022-09-27T11:01:45.636Z,24.08
2022-09-27T11:07:15.248Z,22.75
2022-09-27T11:12:23.123Z,24.83
2022-09-27T11:17:57.244Z,24.92
2022-09-27T11:23:16.000Z,24.10
2022-09-27T11:28:43.298Z,25.48
2022-09-27T11:34:01.320Z,24.52
2022-09-27T11:39:08.687Z,27.10
2022-09-27T11:44:31.760Z,27.55
2022-09-27T11:49:56.527Z,26.15
2022-09-27T11:55:10.926Z,25.45
2022-09-27T12:00:21.832Z,25.23
2022-09-27T12:05:57.408Z,23.73
2022-09-27T12:11:30.499Z,24.25
2022-09-27T12:16:33.643Z,24.05
2022-09-27T12:21:36.527Z,24.60
2022-09-27T12:26:42.153Z,41.95
2022-09-27T12:32:18.963Z,31.08
2022-09-27T12:37:26.398Z,23.88
2022-09-27T12:42:49.267Z,23.80
2022-09-27T12:48:34.367Z,32.40
2022-09-27T12:54:24.346Z,59.50
2022-09-27T12:59:55.236Z,50.47
2022-09-27T13:05:31.518Z,59.28
2022-09-27T13:10:47.549Z,90.38
2022-09-27T13:16:02.766Z,69.00
2022-09-27T13:21:11.146Z,51.13
2022-09-27T13:26:43.827Z,37.78
2022-09-27T13:31:58.996Z,70.80
2022-09-27T13:37:36.995Z,44.03
2022-09-27T13:43:06.762Z,64.63
2022-09-27T13:48:16.503Z,53.67
2022-09-27T13:53:39.044Z,48.80
2022-09-27T13:58:58.373Z,30.70
2022-09-27T14:04:46.523Z,108.45
2022-09-27T14:09:53.301Z,36.33
2022-09-27T14:15:00.161Z,61.83
2022-09-27T14:20:03.817Z,52.65
2022-09-27T14:25:17.797Z,70.82
2022-09-27T14:30:28.018Z,32.07
2022-09-27T14:36:08.171Z,32.90
2022-09-27T14:41:12.809Z,32.28
2022-09-27T14:46:32.052Z,40.15
2022-09-27T14:51:34.647Z,40.85
2022-09-27T14:56:38.162Z,34.78
2022-09-27T15:01:42.874Z,33.08
2022-09-27T15:06:45.842Z,39.47
2022-09-27T15:11:52.947Z,34.55
2022-09-27T15:16:57.067Z,27.38
2022-09-27T15:22:23.011Z,48.72
2022-09-27T15:27:26.041Z,51.60
2022-09-27T15:32:29.342Z,42.80
2022-09-27T15:37:37.964Z,42.15
2022-09-27T15:42:59.671Z,35.40
2022-09-27T15:48:21.506Z,31.70
2022-09-27T15:53:35.817Z,31.95
2022-09-27T15:58:38.165Z,32.63
2022-09-27T16:03:41.013Z,36.67
2022-09-27T16:08:44.479Z,36.70
2022-09-27T16:13:47.002Z,32.58
2022-09-27T16:18:49.989Z,32.40
2022-09-27T16:23:52.367Z,30.92
2022-09-27T16:28:54.946Z,27.45
2022-09-27T16:33:58.294Z,32.17
2022-09-27T16:39:00.713Z,29.00
2022-09-27T16:44:11.048Z,28.33
2022-09-27T16:49:32.194Z,26.73
2022-09-27T16:54:34.562Z,26.15
2022-09-27T16:59:37.127Z,31.15
2022-09-27T17:04:39.446Z,29.15
2022-09-27T17:09:43.028Z,28.55
2022-09-27T17:14:45.380Z,28.98
2022-09-27T17:19:48.631Z,26.98
2022-09-27T17:24:51.395Z,24.98
2022-09-27T17:29:54.481Z,23.88
2022-09-27T17:34:57.420Z,26.42
2022-09-27T17:39:59.762Z,29.02
2022-09-27T17:45:02.106Z,26.33
2022-09-27T17:50:23.284Z,28.77
2022-09-27T17:55:27.116Z,26.52
2022-09-27T18:00:29.989Z,29.33
2022-09-27T18:05:32.404Z,26.35
2022-09-27T18:10:35.625Z,30.30
2022-09-27T18:15:38.076Z,28.83
2022-09-27T18:20:40.479Z,29.00
2022-09-27T18:25:43.231Z,28.20
2022-09-27T18:36:05.885Z,32.22
2022-09-27T18:41:17.457Z,31.00
2022-09-27T18:46:37.257Z,30.45
2022-09-27T18:51:44.879Z,26.50
2022-09-27T18:56:49.265Z,26.60
2022-09-27T19:01:51.980Z,26.08
2022-09-27T19:06:55.722Z,23.33
2022-09-27T19:11:58.101Z,27.00
2022-09-27T19:17:00.478Z,26.45
2022-09-27T19:22:02.908Z,26.13
2022-09-27T19:27:05.321Z,27.13
2022-09-27T19:32:07.779Z,28.15
2022-09-27T19:37:10.150Z,27.02
2022-09-27T19:42:12.538Z,30.17
2022-09-27T19:47:15.026Z,17.80
2022-09-27T19:52:17.393Z,8.65
2022-09-27T19:57:19.964Z,3.80
2022-09-27T20:02:22.353Z,3.50
2022-09-27T20:07:25.011Z,2.22
2022-09-27T20:12:27.639Z,3.60
2022-09-27T20:17:33.974Z,4.90
2022-09-27T20:22:36.314Z,6.22
2022-09-27T20:27:39.891Z,7.50
2022-09-27T20:33:02.168Z,7.30
2022-09-27T20:38:05.517Z,9.40
2022-09-27T20:43:07.830Z,9.18
2022-09-27T20:48:10.228Z,8.35
2022-09-27T20:53:13.107Z,8.20
2022-09-27T20:58:15.526Z,7.45
2022-09-27T21:03:21.751Z,7.60
2022-09-27T21:08:26.162Z,7.10
2022-09-27T21:13:28.711Z,7.78
2022-09-27T21:18:31.365Z,8.25
2022-09-27T21:23:35.736Z,7.80
2022-09-27T21:28:42.906Z,8.90
2022-09-27T21:33:48.942Z,10.18
2022-09-27T21:38:51.770Z,7.75
2022-09-27T21:43:54.702Z,8.30
2022-09-27T21:48:58.851Z,5.93
2022-09-27T21:54:02.976Z,5.90
2022-09-27T21:59:06.381Z,5.72
2022-09-27T22:04:08.770Z,6.57
2022-09-27T22:09:17.706Z,7.43
2022-09-27T22:14:20.404Z,4.50
2022-09-27T22:19:23.571Z,4.13
2022-09-27T22:24:25.986Z,7.45
2022-09-27T22:29:28.500Z,3.65
2022-09-27T22:34:31.588Z,3.35
2022-09-27T22:39:34.109Z,4.05
2022-09-27T22:44:37.569Z,4.50
2022-09-27T22:49:39.959Z,3.08
2022-09-27T22:54:42.337Z,3.15
2022-09-27T22:59:44.731Z,3.40
2022-09-27T23:04:48.738Z,3.33
2022-09-27T23:09:51.338Z,3.50
2022-09-27T23:14:53.691Z,3.30
2022-09-27T23:19:56.065Z,3.38
2022-09-27T23:24:58.599Z,3.25
2022-09-27T23:30:00.944Z,3.35
2022-09-27T23:35:03.535Z,3.35
2022-09-27T23:40:06.662Z,3.10
2022-09-27T23:45:09.357Z,3.33
2022-09-27T23:50:11.747Z,4.05
2022-09-27T23:55:14.157Z,4.20
